sensor_id;sensor_type;location;lat;lon;timestamp;pressure;altitude;pressure_sealevel;temperature;humidity
13015;BME280;6573;57.696;11.950;2024-02-21T00:00:52;100765.75;;;10.34;100.00
13015;BME280;6573;57.696;11.950;2024-02-21T00:03:21;100792.03;;;10.37;100.00
13015;BME280;6573;57.696;11.950;2024-02-21T00:05:49;100719.38;;;10.12;100.00
13015;BME280;6573;57.696;11.950;2024-02-21T00:08:18;100742.09;;;10.40;100.00
13015;BME280;6573;57.696;11.950;2024-02-21T00:10:47;100762.25;;;10.32;100.00
13015;BME280;6573;57.696;11.950;2024-02-21T00:13:17;100779.78;;;10.30;100.00
13015;BME280;6573;57.696;11.950;2024-02-21T00:15:46;100720.25;;;10.05;100.00
13015;BME280;6573;57.696;11.950;2024-02-21T00:18:14;100736.00;;;10.20;100.00
13015;BME280;6573;57.696;11.950;2024-02-21T00:20:43;100771.88;;;10.49;100.00
13015;BME280;6573;57.696;11.950;2024-02-21T00:23:12;100776.25;;;10.47;100.00
13015;BME280;6573;57.696;11.950;2024-02-21T00:25:40;100767.56;;;10.29;100.00
13015;BME280;6573;57.696;11.950;2024-02-21T00:28:09;100748.25;;;10.36;100.00
13015;BME280;6573;57.696;11.950;2024-02-21T00:30:39;100751.78;;;10.22;100.00
13015;BME280;6573;57.696;11.950;2024-02-21T00:33:08;100730.75;;;10.08;100.00
13015;BME280;6573;57.696;11.950;2024-02-21T00:35:36;100743.03;;;10.24;100.00
13015;BME280;6573;57.696;11.950;2024-02-21T00:38:05;100670.38;;;9.81;100.00
13015;BME280;6573;57.696;11.950;2024-02-21T00:40:34;100736.00;;;10.29;100.00
13015;BME280;6573;57.696;11.950;2024-02-21T00:43:03;100718.47;;;10.31;100.00
13015;BME280;6573;57.696;11.950;2024-02-21T00:45:32;100686.94;;;10.15;100.00
13015;BME280;6573;57.696;11.950;2024-02-21T00:48:02;100713.16;;;10.40;100.00
13015;BME280;6573;57.696;11.950;2024-02-21T00:50:31;100705.25;;;10.45;100.00
13015;BME280;6573;57.696;11.950;2024-02-21T00:52:59;100697.44;;;10.22;100.00
13015;BME280;6573;57.696;11.950;2024-02-21T00:55:28;100688.69;;;10.26;100.00
13015;BME280;6573;57.696;11.950;2024-02-21T00:57:56;100693.94;;;10.23;100.00
13015;BME280;6573;57.696;11.950;2024-02-21T01:00:25;100695.72;;;10.18;100.00
13015;BME280;6573;57.696;11.950;2024-02-21T01:02:53;100676.44;;;10.13;100.00
13015;BME280;6573;57.696;11.950;2024-02-21T01:05:23;100691.31;;;10.26;100.00
13015;BME280;6573;57.696;11.950;2024-02-21T01:07:52;100681.66;;;10.22;100.00
13015;BME280;6573;57.696;11.950;2024-02-21T01:10:21;100654.56;;;10.14;100.00
13015;BME280;6573;57.696;11.950;2024-02-21T01:12:49;100657.16;;;10.20;100.00
13015;BME280;6573;57.696;11.950;2024-02-21T01:15:18;100667.66;;;10.20;100.00
13015;BME280;6573;57.696;11.950;2024-02-21T01:17:47;100643.13;;;10.21;100.00
13015;BME280;6573;57.696;11.950;2024-02-21T01:20:16;100639.56;;;10.34;100.00
13015;BME280;6573;57.696;11.950;2024-02-21T01:22:47;100578.31;;;10.05;100.00
13015;BME280;6573;57.696;11.950;2024-02-21T01:25:15;100639.59;;;10.31;100.00
13015;BME280;6573;57.696;11.950;2024-02-21T01:27:44;100636.09;;;10.26;100.00
13015;BME280;6573;57.696;11.950;2024-02-21T01:30:13;100632.56;;;10.30;100.00
13015;BME280;6573;57.696;11.950;2024-02-21T01:32:41;100632.56;;;10.27;100.00
13015;BME280;6573;57.696;11.950;2024-02-21T01:35:09;100600.22;;;10.18;100.00
13015;BME280;6573;57.696;11.950;2024-02-21T01:37:38;100605.44;;;10.25;100.00
13015;BME280;6573;57.696;11.950;2024-02-21T01:40:10;100579.13;;;10.25;100.00
13015;BME280;6573;57.696;11.950;2024-02-21T01:42:39;100602.78;;;10.28;100.00
13015;BME280;6573;57.696;11.950;2024-02-21T01:45:10;100563.44;;;10.16;100.00
13015;BME280;6573;57.696;11.950;2024-02-21T01:47:41;100580.00;;;10.27;100.00
13015;BME280;6573;57.696;11.950;2024-02-21T01:50:10;100515.31;;;9.99;100.00
13015;BME280;6573;57.696;11.950;2024-02-21T01:52:40;100575.59;;;10.34;100.00
13015;BME280;6573;57.696;11.950;2024-02-21T01:55:13;100573.81;;;10.39;100.00
13015;BME280;6573;57.696;11.950;2024-02-21T01:57:42;100560.72;;;10.31;100.00
13015;BME280;6573;57.696;11.950;2024-02-21T02:00:13;100569.38;;;10.49;100.00
13015;BME280;6573;57.696;11.950;2024-02-21T02:02:42;100496.88;;;10.04;100.00
13015;BME280;6573;57.696;11.950;2024-02-21T02:05:13;100532.66;;;10.33;100.00
13015;BME280;6573;57.696;11.950;2024-02-21T02:07:41;100467.88;;;10.20;100.00
13015;BME280;6573;57.696;11.950;2024-02-21T02:10:09;100434.63;;;10.19;100.00
13015;BME280;6573;57.696;11.950;2024-02-21T02:12:40;100510.44;;;10.69;100.00
13015;BME280;6573;57.696;11.950;2024-02-21T02:15:08;100478.19;;;10.48;100.00
13015;BME280;6573;57.696;11.950;2024-02-21T02:17:37;100513.97;;;10.67;100.00
13015;BME280;6573;57.696;11.950;2024-02-21T02:20:07;100494.72;;;10.65;100.00
13015;BME280;6573;57.696;11.950;2024-02-21T02:22:37;100462.38;;;10.54;100.00
13015;BME280;6573;57.696;11.950;2024-02-21T02:25:09;100458.69;;;10.73;100.00
13015;BME280;6573;57.696;11.950;2024-02-21T02:27:44;100404.59;;;10.45;100.00
13015;BME280;6573;57.696;11.950;2024-02-21T02:30:13;100404.56;;;10.51;100.00
13015;BME280;6573;57.696;11.950;2024-02-21T02:32:44;100444.69;;;10.74;100.00
13015;BME280;6573;57.696;11.950;2024-02-21T02:35:13;100401.19;;;10.33;100.00
13015;BME280;6573;57.696;11.950;2024-02-21T02:37:48;100440.22;;;10.77;100.00
13015;BME280;6573;57.696;11.950;2024-02-21T02:40:18;100443.69;;;10.85;100.00
13015;BME280;6573;57.696;11.950;2024-02-21T02:42:46;100427.22;;;10.64;100.00
13015;BME280;6573;57.696;11.950;2024-02-21T02:45:16;100397.50;;;10.56;100.00
13015;BME280;6573;57.696;11.950;2024-02-21T02:47:44;100413.22;;;10.62;100.00
13015;BME280;6573;57.696;11.950;2024-02-21T02:50:14;100389.69;;;10.45;100.00
13015;BME280;6573;57.696;11.950;2024-02-21T02:52:42;100421.75;;;10.82;100.00
13015;BME280;6573;57.696;11.950;2024-02-21T02:55:11;100376.44;;;10.56;100.00
13015;BME280;6573;57.696;11.950;2024-02-21T02:57:41;100413.09;;;10.74;100.00
13015;BME280;6573;57.696;11.950;2024-02-21T03:00:11;100389.59;;;10.56;100.00
13015;BME280;6573;57.696;11.950;2024-02-21T03:02:42;100370.38;;;10.48;100.00
13015;BME280;6573;57.696;11.950;2024-02-21T03:05:13;100355.50;;;10.47;100.00
13015;BME280;6573;57.696;11.950;2024-02-21T03:07:43;100394.69;;;10.74;100.00
13015;BME280;6573;57.696;11.950;2024-02-21T03:10:13;100397.22;;;10.83;100.00
13015;BME280;6573;57.696;11.950;2024-02-21T03:12:46;100372.75;;;10.72;100.00
13015;BME280;6573;57.696;11.950;2024-02-21T03:15:14;100325.72;;;10.45;100.00
13015;BME280;6573;57.696;11.950;2024-02-21T03:17:43;100360.56;;;10.65;100.00
13015;BME280;6573;57.696;11.950;2024-02-21T03:20:12;100375.41;;;10.72;100.00
13015;BME280;6573;57.696;11.950;2024-02-21T03:22:40;100358.75;;;10.70;100.00
13015;BME280;6573;57.696;11.950;2024-02-21T03:25:09;100334.34;;;10.59;100.00
13015;BME280;6573;57.696;11.950;2024-02-21T03:27:40;100356.94;;;10.75;100.00
13015;BME280;6573;57.696;11.950;2024-02-21T03:30:11;100354.31;;;10.76;100.00
13015;BME280;6573;57.696;11.950;2024-02-21T03:32:40;100340.38;;;10.67;100.00
13015;BME280;6573;57.696;11.950;2024-02-21T03:35:08;100362.19;;;10.78;100.00
13015;BME280;6573;57.696;11.950;2024-02-21T03:37:37;100354.34;;;10.72;100.00
13015;BME280;6573;57.696;11.950;2024-02-21T03:40:08;100352.66;;;10.68;100.00
13015;BME280;6573;57.696;11.950;2024-02-21T03:42:40;100360.44;;;10.77;100.00
13015;BME280;6573;57.696;11.950;2024-02-21T03:45:11;100343.69;;;10.85;100.00
13015;BME280;6573;57.696;11.950;2024-02-21T03:47:39;100314.97;;;10.66;100.00
13015;BME280;6573;57.696;11.950;2024-02-21T03:50:08;100337.75;;;10.67;100.00
13015;BME280;6573;57.696;11.950;2024-02-21T03:52:37;100330.69;;;10.70;100.00
13015;BME280;6573;57.696;11.950;2024-02-21T03:55:07;100320.06;;;10.81;100.00
13015;BME280;6573;57.696;11.950;2024-02-21T03:57:36;100301.72;;;10.75;100.00
13015;BME280;6573;57.696;11.950;2024-02-21T04:00:06;100313.00;;;10.86;100.00
13015;BME280;6573;57.696;11.950;2024-02-21T04:02:39;100307.06;;;10.69;100.00
13015;BME280;6573;57.696;11.950;2024-02-21T04:05:08;100307.91;;;10.69;100.00
13015;BME280;6573;57.696;11.950;2024-02-21T04:07:38;100259.06;;;10.49;100.00
13015;BME280;6573;57.696;11.950;2024-02-21T04:10:08;100285.13;;;10.67;100.00
13015;BME280;6573;57.696;11.950;2024-02-21T04:12:37;100293.81;;;10.75;100.00
13015;BME280;6573;57.696;11.950;2024-02-21T04:15:07;100264.16;;;10.64;100.00
13015;BME280;6573;57.696;11.950;2024-02-21T04:17:36;100283.25;;;10.78;100.00
13015;BME280;6573;57.696;11.950;2024-02-21T04:20:14;100291.91;;;10.89;100.00
13015;BME280;6573;57.696;11.950;2024-02-21T04:22:43;100275.31;;;10.82;100.00
13015;BME280;6573;57.696;11.950;2024-02-21T04:25:13;100275.31;;;10.82;100.00
13015;BME280;6573;57.696;11.950;2024-02-21T04:27:41;100250.00;;;10.74;100.00
13015;BME280;6573;57.696;11.950;2024-02-21T04:30:10;100216.91;;;10.55;100.00
13015;BME280;6573;57.696;11.950;2024-02-21T04:32:39;100274.41;;;10.85;100.00
13015;BME280;6573;57.696;11.950;2024-02-21T04:35:09;100208.13;;;10.56;100.00
13015;BME280;6573;57.696;11.950;2024-02-21T04:37:38;100265.63;;;10.86;100.00
13015;BME280;6573;57.696;11.950;2024-02-21T04:40:07;100263.91;;;10.82;100.00
13015;BME280;6573;57.696;11.950;2024-02-21T04:42:41;100267.34;;;10.87;100.00
13015;BME280;6573;57.696;11.950;2024-02-21T04:45:10;100251.63;;;10.84;100.00
13015;BME280;6573;57.696;11.950;2024-02-21T04:47:39;100244.66;;;10.80;100.00
13015;BME280;6573;57.696;11.950;2024-02-21T04:50:10;100236.06;;;10.66;100.00
13015;BME280;6573;57.696;11.950;2024-02-21T04:52:40;100263.09;;;10.77;100.00
13015;BME280;6573;57.696;11.950;2024-02-21T04:55:09;100228.31;;;10.57;100.00
13015;BME280;6573;57.696;11.950;2024-02-21T04:57:38;100260.44;;;10.80;100.00
13015;BME280;6573;57.696;11.950;2024-02-21T05:00:08;100257.13;;;10.63;100.00
13015;BME280;6573;57.696;11.950;2024-02-21T05:02:36;100230.28;;;10.35;100.00
13015;BME280;6573;57.696;11.950;2024-02-21T05:05:06;100215.38;;;10.38;100.00
13015;BME280;6573;57.696;11.950;2024-02-21T05:07:37;100210.81;;;10.54;100.00
13015;BME280;6573;57.696;11.950;2024-02-21T05:10:07;100190.75;;;10.43;100.00
13015;BME280;6573;57.696;11.950;2024-02-21T05:12:36;100208.00;;;10.65;100.00
13015;BME280;6573;57.696;11.950;2024-02-21T05:15:06;100242.75;;;10.91;100.00
13015;BME280;6573;57.696;11.950;2024-02-21T05:17:35;100227.34;;;10.64;100.00
13015;BME280;6573;57.696;11.950;2024-02-21T05:20:17;100181.16;;;10.42;100.00
13015;BME280;6573;57.696;11.950;2024-02-21T05:22:48;100237.72;;;10.73;100.00
13015;BME280;6573;57.696;11.950;2024-02-21T05:25:16;100235.31;;;10.56;100.00
13015;BME280;6573;57.696;11.950;2024-02-21T05:27:45;100244.81;;;10.68;100.00
13015;BME280;6573;57.696;11.950;2024-02-21T05:30:14;100244.75;;;10.72;100.00
13015;BME280;6573;57.696;11.950;2024-02-21T05:32:43;100241.31;;;10.69;100.00
13015;BME280;6573;57.696;11.950;2024-02-21T05:35:12;100250.91;;;10.70;100.00
13015;BME280;6573;57.696;11.950;2024-02-21T05:37:43;100237.66;;;10.79;100.00
13015;BME280;6573;57.696;11.950;2024-02-21T05:41:05;100251.50;;;10.93;100.00
13015;BME280;6573;57.696;11.950;2024-02-21T05:43:38;100258.59;;;10.88;100.00
13015;BME280;6573;57.696;11.950;2024-02-21T05:46:08;100231.63;;;10.69;100.00
13015;BME280;6573;57.696;11.950;2024-02-21T05:48:53;100253.44;;;10.79;100.00
13015;BME280;6573;57.696;11.950;2024-02-21T05:51:44;100248.19;;;10.79;100.00
13015;BME280;6573;57.696;11.950;2024-02-21T05:54:41;100189.72;;;10.56;100.00
13015;BME280;6573;57.696;11.950;2024-02-21T05:57:18;100215.06;;;10.64;100.00
13015;BME280;6573;57.696;11.950;2024-02-21T05:59:48;100166.38;;;10.31;100.00
13015;BME280;6573;57.696;11.950;2024-02-21T06:02:24;100215.00;;;10.69;100.00
13015;BME280;6573;57.696;11.950;2024-02-21T06:04:53;100165.31;;;10.45;100.00
13015;BME280;6573;57.696;11.950;2024-02-21T06:07:22;100237.69;;;10.76;100.00
13015;BME280;6573;57.696;11.950;2024-02-21T06:09:52;100241.16;;;10.78;100.00
13015;BME280;6573;57.696;11.950;2024-02-21T06:16:49;100235.13;;;10.71;100.00
13015;BME280;6573;57.696;11.950;2024-02-21T06:20:19;100243.97;;;10.66;100.00
13015;BME280;6573;57.696;11.950;2024-02-21T06:22:59;100112.66;;;9.77;100.00
13015;BME280;6573;57.696;11.950;2024-02-21T06:25:30;100253.47;;;10.76;100.00
13015;BME280;6573;57.696;11.950;2024-02-21T06:28:01;100248.09;;;10.85;100.00
13015;BME280;6573;57.696;11.950;2024-02-21T06:30:31;100225.34;;;10.81;100.00
13015;BME280;6573;57.696;11.950;2024-02-21T06:33:00;100217.50;;;10.78;100.00
13015;BME280;6573;57.696;11.950;2024-02-21T06:35:32;100171.28;;;10.59;100.00
13015;BME280;6573;57.696;11.950;2024-02-21T06:38:08;100151.41;;;10.36;100.00
13015;BME280;6573;57.696;11.950;2024-02-21T06:40:50;100244.63;;;10.83;100.00
13015;BME280;6573;57.696;11.950;2024-02-21T06:43:23;100244.63;;;10.83;100.00
13015;BME280;6573;57.696;11.950;2024-02-21T06:45:56;100234.22;;;10.74;100.00
13015;BME280;6573;57.696;11.950;2024-02-21T06:48:27;100192.53;;;10.44;100.00
13015;BME280;6573;57.696;11.950;2024-02-21T06:51:04;100194.31;;;10.42;100.00
13015;BME280;6573;57.696;11.950;2024-02-21T06:54:10;100115.88;;;10.02;100.00
13015;BME280;6573;57.696;11.950;2024-02-21T07:00:48;100232.53;;;10.67;100.00
13015;BME280;6573;57.696;11.950;2024-02-21T07:03:46;100238.63;;;10.70;100.00
13015;BME280;6573;57.696;11.950;2024-02-21T07:06:31;100231.88;;;10.51;100.00
13015;BME280;6573;57.696;11.950;2024-02-21T07:09:06;100199.56;;;10.42;100.00
13015;BME280;6573;57.696;11.950;2024-02-21T07:12:19;100246.47;;;10.75;100.00
13015;BME280;6573;57.696;11.950;2024-02-21T07:15:32;100258.84;;;10.67;100.00
13015;BME280;6573;57.696;11.950;2024-02-21T07:18:24;100262.28;;;10.72;100.00
13015;BME280;6573;57.696;11.950;2024-02-21T07:21:39;100098.66;;;9.77;100.00
13015;BME280;6573;57.696;11.950;2024-02-21T07:33:21;100255.13;;;10.83;100.00
13015;BME280;6573;57.696;11.950;2024-02-21T07:36:32;100182.19;;;10.28;100.00
13015;BME280;6573;57.696;11.950;2024-02-21T07:43:50;100176.03;;;10.31;100.00
13015;BME280;6573;57.696;11.950;2024-02-21T07:46:27;100175.38;;;10.09;100.00
13015;BME280;6573;57.696;11.950;2024-02-21T07:49:05;100208.31;;;10.40;100.00
13015;BME280;6573;57.696;11.950;2024-02-21T07:52:13;100265.84;;;10.68;100.00
13015;BME280;6573;57.696;11.950;2024-02-21T07:54:49;100262.41;;;10.63;100.00
13015;BME280;6573;57.696;11.950;2024-02-21T07:57:19;100171.88;;;10.07;100.00
13015;BME280;6573;57.696;11.950;2024-02-21T07:59:49;100237.41;;;10.25;100.00
13015;BME280;6573;57.696;11.950;2024-02-21T08:02:18;100206.22;;;9.88;100.00
13015;BME280;6573;57.696;11.950;2024-02-21T08:04:50;100267.97;;;10.35;100.00
13015;BME280;6573;57.696;11.950;2024-02-21T08:36:50;100297.97;;;10.16;100.00
13015;BME280;6573;57.696;11.950;2024-02-21T08:39:20;100259.63;;;9.91;100.00
13015;BME280;6573;57.696;11.950;2024-02-21T08:41:48;100335.53;;;10.29;100.00
13015;BME280;6573;57.696;11.950;2024-02-21T08:44:24;100207.38;;;9.61;100.00
13015;BME280;6573;57.696;11.950;2024-02-21T08:46:56;100320.44;;;10.45;100.00
13015;BME280;6573;57.696;11.950;2024-02-21T08:49:25;100341.28;;;10.66;100.00
13015;BME280;6573;57.696;11.950;2024-02-21T08:52:02;100214.41;;;9.56;100.00
13015;BME280;6573;57.696;11.950;2024-02-21T08:54:32;100332.94;;;10.24;100.00
13015;BME280;6573;57.696;11.950;2024-02-21T08:57:02;100345.25;;;10.15;100.00
13015;BME280;6573;57.696;11.950;2024-02-21T08:59:32;100361.06;;;10.13;100.00
13015;BME280;6573;57.696;11.950;2024-02-21T09:02:02;100353.78;;;10.43;100.00
13015;BME280;6573;57.696;11.950;2024-02-21T09:04:31;100348.59;;;10.36;100.00
13015;BME280;6573;57.696;11.950;2024-02-21T09:07:05;100358.97;;;10.52;100.00
13015;BME280;6573;57.696;11.950;2024-02-21T09:09:36;100352.91;;;10.42;100.00
13015;BME280;6573;57.696;11.950;2024-02-21T09:12:07;100360.78;;;10.47;100.00
13015;BME280;6573;57.696;11.950;2024-02-21T09:14:37;100317.28;;;10.05;100.00
13015;BME280;6573;57.696;11.950;2024-02-21T09:17:08;100377.69;;;10.11;100.00
13015;BME280;6573;57.696;11.950;2024-02-21T09:19:39;100306.25;;;9.65;100.00
13015;BME280;6573;57.696;11.950;2024-02-21T09:22:10;100352.44;;;9.93;100.00
13015;BME280;6573;57.696;11.950;2024-02-21T09:24:40;100270.47;;;9.49;100.00
13015;BME280;6573;57.696;11.950;2024-02-21T09:27:12;100359.28;;;10.18;100.00
13015;BME280;6573;57.696;11.950;2024-02-21T09:29:42;100361.16;;;9.95;100.00
13015;BME280;6573;57.696;11.950;2024-02-21T09:32:12;100352.69;;;9.57;100.00
13015;BME280;6573;57.696;11.950;2024-02-21T09:34:41;100389.41;;;9.63;100.00
13015;BME280;6573;57.696;11.950;2024-02-21T09:37:12;100337.03;;;9.40;100.00
13015;BME280;6573;57.696;11.950;2024-02-21T09:39:45;100375.34;;;9.73;100.00
13015;BME280;6573;57.696;11.950;2024-02-21T09:42:19;100375.34;;;9.70;100.00
13015;BME280;6573;57.696;11.950;2024-02-21T09:44:50;100382.34;;;9.71;100.00
13015;BME280;6573;57.696;11.950;2024-02-21T09:47:28;100350.84;;;9.68;100.00
13015;BME280;6573;57.696;11.950;2024-02-21T09:50:17;100306.44;;;9.36;100.00
13015;BME280;6573;57.696;11.950;2024-02-21T09:52:51;100375.41;;;9.61;100.00
13015;BME280;6573;57.696;11.950;2024-02-21T09:55:21;100381.63;;;9.46;100.00
13015;BME280;6573;57.696;11.950;2024-02-21T09:57:51;100412.19;;;9.59;100.00
13015;BME280;6573;57.696;11.950;2024-02-21T10:00:22;100334.50;;;9.21;100.00
13015;BME280;6573;57.696;11.950;2024-02-21T10:02:55;100398.34;;;9.26;100.00
13015;BME280;6573;57.696;11.950;2024-02-21T10:05:28;100400.88;;;9.45;100.00
13015;BME280;6573;57.696;11.950;2024-02-21T10:08:03;100431.47;;;9.60;100.00
13015;BME280;6573;57.696;11.950;2024-02-21T10:10:42;100447.09;;;9.75;100.00
13015;BME280;6573;57.696;11.950;2024-02-21T10:13:24;100468.97;;;9.85;100.00
13015;BME280;6573;57.696;11.950;2024-02-21T10:16:11;100427.09;;;9.53;100.00
13015;BME280;6573;57.696;11.950;2024-02-21T10:18:42;100481.94;;;10.07;100.00
13015;BME280;6573;57.696;11.950;2024-02-21T10:21:11;100396.56;;;9.34;100.00
13015;BME280;6573;57.696;11.950;2024-02-21T10:23:44;100487.34;;;9.83;100.00
13015;BME280;6573;57.696;11.950;2024-02-21T10:26:17;100496.88;;;10.02;100.00
13015;BME280;6573;57.696;11.950;2024-02-21T10:28:48;100508.22;;;10.19;100.00
13015;BME280;6573;57.696;11.950;2024-02-21T10:31:23;100462.91;;;9.72;100.00
13015;BME280;6573;57.696;11.950;2024-02-21T10:33:56;100490.91;;;9.76;100.00
13015;BME280;6573;57.696;11.950;2024-02-21T10:36:31;100538.16;;;9.82;100.00
13015;BME280;6573;57.696;11.950;2024-02-21T10:39:08;100496.22;;;9.61;100.00
13015;BME280;6573;57.696;11.950;2024-02-21T10:41:41;100485.81;;;9.40;100.00
13015;BME280;6573;57.696;11.950;2024-02-21T10:44:12;100546.09;;;9.61;100.00
13015;BME280;6573;57.696;11.950;2024-02-21T10:46:47;100435.13;;;9.23;100.00
13015;BME280;6573;57.696;11.950;2024-02-21T10:49:22;100536.34;;;9.96;100.00
13015;BME280;6573;57.696;11.950;2024-02-21T10:51:58;100535.53;;;9.76;100.00
13015;BME280;6573;57.696;11.950;2024-02-21T10:54:44;100531.25;;;9.48;100.00
13015;BME280;6573;57.696;11.950;2024-02-21T10:57:21;100534.78;;;9.50;100.00
13015;BME280;6573;57.696;11.950;2024-02-21T10:59:59;100529.59;;;9.23;100.00
13015;BME280;6573;57.696;11.950;2024-02-21T11:02:33;100555.81;;;9.32;100.00
13015;BME280;6573;57.696;11.950;2024-02-21T11:05:21;100522.59;;;9.25;100.00
13015;BME280;6573;57.696;11.950;2024-02-21T11:07:55;100529.59;;;9.30;100.00
13015;BME280;6573;57.696;11.950;2024-02-21T11:10:28;100466.72;;;8.80;100.00
13015;BME280;6573;57.696;11.950;2024-02-21T11:13:06;100508.59;;;9.13;100.00
13015;BME280;6573;57.696;11.950;2024-02-21T11:15:37;100541.84;;;9.18;100.00
13015;BME280;6573;57.696;11.950;2024-02-21T11:18:07;100541.81;;;9.21;100.00
13015;BME280;6573;57.696;11.950;2024-02-21T11:20:38;100530.44;;;9.29;100.00
13015;BME280;6573;57.696;11.950;2024-02-21T11:23:10;100533.88;;;9.48;100.00
13015;BME280;6573;57.696;11.950;2024-02-21T11:25:41;100529.50;;;9.56;100.00
13015;BME280;6573;57.696;11.950;2024-02-21T11:28:13;100528.59;;;9.55;100.00
13015;BME280;6573;57.696;11.950;2024-02-21T11:30:42;100506.75;;;9.55;100.00
13015;BME280;6573;57.696;11.950;2024-02-21T11:33:12;100526.00;;;9.57;100.00
13015;BME280;6573;57.696;11.950;2024-02-21T11:35:41;100443.91;;;9.03;100.00
13015;BME280;6573;57.696;11.950;2024-02-21T11:38:11;100478.84;;;9.30;100.00
13015;BME280;6573;57.696;11.950;2024-02-21T11:40:46;100485.81;;;9.34;100.00
13015;BME280;6573;57.696;11.950;2024-02-21T11:43:16;100500.63;;;9.48;100.00
13015;BME280;6573;57.696;11.950;2024-02-21T11:45:46;100472.66;;;9.38;100.00
13015;BME280;6573;57.696;11.950;2024-02-21T11:48:15;100488.34;;;9.62;100.00
13015;BME280;6573;57.696;11.950;2024-02-21T11:50:53;100419.25;;;9.47;100.00
13015;BME280;6573;57.696;11.950;2024-02-21T11:53:22;100422.75;;;9.49;100.00
13015;BME280;6573;57.696;11.950;2024-02-21T11:55:52;100469.78;;;9.94;100.00
13015;BME280;6573;57.696;11.950;2024-02-21T11:58:24;100417.41;;;9.65;100.00
13015;BME280;6573;57.696;11.950;2024-02-21T12:00:53;100448.72;;;10.00;100.00
13015;BME280;6573;57.696;11.950;2024-02-21T12:03:24;100371.72;;;9.88;100.00
13015;BME280;6573;57.696;11.950;2024-02-21T12:05:53;100399.63;;;10.08;100.00
13015;BME280;6573;57.696;11.950;2024-02-21T12:08:24;100431.06;;;10.26;100.00
13015;BME280;6573;57.696;11.950;2024-02-21T12:10:55;100414.50;;;10.12;100.00
13015;BME280;6573;57.696;11.950;2024-02-21T12:13:24;100446.09;;;9.99;100.00
13015;BME280;6573;57.696;11.950;2024-02-21T12:15:55;100452.25;;;9.99;100.00
13015;BME280;6573;57.696;11.950;2024-02-21T12:18:24;100389.38;;;9.66;100.00
13015;BME280;6573;57.696;11.950;2024-02-21T12:20:54;100368.28;;;9.78;100.00
13015;BME280;6573;57.696;11.950;2024-02-21T12:23:26;100346.44;;;9.76;100.00
13015;BME280;6573;57.696;11.950;2024-02-21T12:26:01;100345.44;;;9.92;100.00
13015;BME280;6573;57.696;11.950;2024-02-21T12:28:34;100329.66;;;9.94;100.00
13015;BME280;6573;57.696;11.950;2024-02-21T12:31:04;100428.31;;;10.38;100.00
13015;BME280;6573;57.696;11.950;2024-02-21T12:33:35;100408.28;;;10.27;100.00
13015;BME280;6573;57.696;11.950;2024-02-21T12:36:07;100406.34;;;10.46;100.00
13015;BME280;6573;57.696;11.950;2024-02-21T12:38:38;100421.00;;;10.72;100.00
13015;BME280;6573;57.696;11.950;2024-02-21T12:41:12;100329.41;;;10.25;100.00
13015;BME280;6573;57.696;11.950;2024-02-21T12:43:44;100426.94;;;10.94;100.00
13015;BME280;6573;57.696;11.950;2024-02-21T12:46:15;100416.75;;;10.58;100.00
13015;BME280;6573;57.696;11.950;2024-02-21T12:48:51;100367.13;;;10.21;100.00
13015;BME280;6573;57.696;11.950;2024-02-21T12:51:25;100427.38;;;10.49;100.00
13015;BME280;6573;57.696;11.950;2024-02-21T12:53:56;100370.53;;;10.34;100.00
13015;BME280;6573;57.696;11.950;2024-02-21T12:56:29;100439.44;;;10.71;100.00
13015;BME280;6573;57.696;11.950;2024-02-21T12:58:59;100334.06;;;9.89;100.00
13015;BME280;6573;57.696;11.950;2024-02-21T13:01:29;100462.31;;;10.63;100.00
13015;BME280;6573;57.696;11.950;2024-02-21T13:03:59;100415.06;;;10.54;100.00
13015;BME280;6573;57.696;11.950;2024-02-21T13:06:29;100462.03;;;10.90;100.00
13015;BME280;6573;57.696;11.950;2024-02-21T13:08:59;100480.34;;;11.02;100.00
13015;BME280;6573;57.696;11.950;2024-02-21T13:11:34;100474.41;;;10.83;100.00
13015;BME280;6573;57.696;11.950;2024-02-21T13:14:04;100483.06;;;10.93;100.00
13015;BME280;6573;57.696;11.950;2024-02-21T13:16:34;100472.06;;;10.52;100.00
13015;BME280;6573;57.696;11.950;2024-02-21T13:19:06;100474.63;;;10.55;100.00
13015;BME280;6573;57.696;11.950;2024-02-21T13:21:36;100471.09;;;10.62;100.00
13015;BME280;6573;57.696;11.950;2024-02-21T13:24:11;100464.69;;;10.88;100.00
13015;BME280;6573;57.696;11.950;2024-02-21T13:26:42;100419.41;;;10.55;100.00
